Time;durP1;ratioP1;P1;durP2;ratioP2;P2;SDS_P1;SDS_P2;PMS_P1;PMS_P2;Temp;Humidity;BMP_temperature;BMP_pressure;BME280_temperature;BME280_humidity;BME280_pressure;Samples;Min_cycle;Max_cycle;Signal;HPM_P1;HPM_P2
2021/08/20 00:02:10;;;;;;;4.80;2.22;;;;;;;17.02;73.04;96589.62;1813544;78;21014;-80
2021/08/20 00:04:36;;;;;;;4.00;2.10;;;;;;;17.03;73.19;96588.60;1808321;78;20898;-80
2021/08/20 00:07:03;;;;;;;3.77;2.58;;;;;;;17.01;72.82;96590.13;1801703;78;21287;-80
2021/08/20 00:09:29;;;;;;;3.33;2.52;;;;;;;17.01;73.17;96594.08;1792422;78;20956;-80
2021/08/20 00:11:55;;;;;;;2.87;2.27;;;;;;;17.00;73.15;96586.42;1781056;78;21030;-80
2021/08/20 00:14:21;;;;;;;3.15;2.27;;;;;;;17.00;73.26;96589.84;1752867;80;20936;-81
2021/08/20 00:16:47;;;;;;;2.70;2.27;;;;;;;17.02;73.46;96594.87;1748717;80;20999;-80
2021/08/20 00:19:12;;;;;;;3.10;2.40;;;;;;;17.01;73.52;96594.08;1750655;80;20984;-81
2021/08/20 00:21:38;;;;;;;3.20;2.22;;;;;;;17.03;73.58;96589.92;1751120;80;21309;-81
2021/08/20 00:24:05;;;;;;;4.20;2.80;;;;;;;17.04;73.68;96594.14;1752241;80;20945;-80
2021/08/20 00:26:31;;;;;;;4.67;2.52;;;;;;;17.04;73.77;96595.45;1748574;80;20972;-81
2021/08/20 00:28:56;;;;;;;3.17;2.30;;;;;;;17.03;73.76;96593.34;1751708;80;20958;-80
2021/08/20 00:31:22;;;;;;;4.05;2.20;;;;;;;17.04;73.76;96591.52;1758698;80;21080;-81
2021/08/20 00:33:48;;;;;;;4.15;2.27;;;;;;;17.04;73.77;96588.38;1727012;80;20984;-80
2021/08/20 00:36:14;;;;;;;4.20;2.75;;;;;;;17.06;73.63;96592.10;1747244;80;21011;-80
2021/08/20 00:38:40;;;;;;;3.65;2.35;;;;;;;17.07;73.58;96594.50;1749740;80;20997;-81
2021/08/20 00:41:11;;;;;;;2.92;2.08;;;;;;;17.06;73.41;96592.91;1748081;80;20960;-80
2021/08/20 00:43:37;;;;;;;;;;;;;;;17.08;73.34;96591.38;1749665;79;21377;-81
2021/08/20 00:46:03;;;;;;;3.10;2.30;;;;;;;17.07;73.40;96588.45;1728387;80;20164;-81
2021/08/20 00:48:29;;;;;;;4.00;2.33;;;;;;;17.07;73.22;96594.50;1749089;80;21066;-81
2021/08/20 00:51:11;;;;;;;2.58;2.37;;;;;;;17.08;73.17;96590.89;1754888;80;21039;-80
2021/08/20 00:53:36;;;;;;;3.40;2.55;;;;;;;17.13;73.14;96592.86;1754715;80;21276;-80
2021/08/20 00:56:04;;;;;;;4.22;2.75;;;;;;;17.14;73.40;96591.83;1750818;80;21010;-81
2021/08/20 00:58:31;;;;;;;3.40;2.30;;;;;;;17.15;73.25;96594.75;1748335;80;20982;-81
2021/08/20 01:00:57;;;;;;;3.80;2.12;;;;;;;17.14;73.08;96594.97;1752967;80;20982;-81
2021/08/20 01:03:24;;;;;;;2.80;2.22;;;;;;;17.14;73.23;96593.14;1747907;80;20938;-80
2021/08/20 01:05:52;;;;;;;3.20;2.20;;;;;;;17.15;73.31;96592.13;1744959;80;20964;-80
2021/08/20 01:08:21;;;;;;;3.37;2.50;;;;;;;17.19;73.29;96593.28;1751077;80;20999;-80
2021/08/20 01:10:46;;;;;;;5.62;2.40;;;;;;;17.19;73.23;96589.34;1751168;80;20937;-80
2021/08/20 01:13:12;;;;;;;3.05;2.62;;;;;;;17.19;73.33;96593.28;1793928;78;21396;-80
2021/08/20 01:15:38;;;;;;;5.37;2.70;;;;;;;17.20;73.50;96587.52;1798150;77;20986;-81
2021/08/20 01:18:04;;;;;;;3.65;2.50;;;;;;;17.18;73.69;96588.25;1802815;78;20964;-81
2021/08/20 01:20:30;;;;;;;3.12;2.47;;;;;;;17.15;73.53;96592.63;1797052;77;20986;-80
2021/08/20 01:22:55;;;;;;;4.78;2.40;;;;;;;17.11;73.30;96590.96;1805446;77;21394;-81
2021/08/20 01:25:21;;;;;;;2.62;2.02;;;;;;;17.09;73.09;96589.87;1782516;78;21259;-80
2021/08/20 01:27:47;;;;;;;3.67;2.60;;;;;;;17.09;73.06;96591.19;1801093;77;20945;-80
2021/08/20 01:30:13;;;;;;;3.30;2.42;;;;;;;17.08;73.00;96587.44;1792974;78;21296;-81
2021/08/20 01:32:39;;;;;;;4.50;2.90;;;;;;;17.07;73.05;96590.57;1792607;78;21040;-80
2021/08/20 01:35:06;;;;;;;3.37;2.60;;;;;;;17.06;73.08;96586.34;1809775;78;21037;-80
2021/08/20 01:37:31;;;;;;;2.70;2.17;;;;;;;17.06;73.13;96585.03;1790304;77;21375;-80
2021/08/20 01:39:57;;;;;;;3.77;2.10;;;;;;;17.07;73.22;96587.14;1795812;78;20969;-80
2021/08/20 01:42:23;;;;;;;2.98;2.35;;;;;;;17.08;73.33;96583.49;1805740;77;20917;-80
2021/08/20 01:44:49;;;;;;;3.30;2.40;;;;;;;17.08;73.37;96591.38;1795440;78;21456;-80
2021/08/20 01:47:14;;;;;;;3.22;2.12;;;;;;;17.08;73.52;96588.74;1800744;78;20979;-80
2021/08/20 01:49:40;;;;;;;3.77;2.52;;;;;;;17.07;73.46;96591.88;1801588;77;21012;-80
2021/08/20 01:52:07;;;;;;;2.58;2.37;;;;;;;17.05;73.45;96586.05;1790421;77;21416;-80
2021/08/20 01:54:33;;;;;;;2.70;2.02;;;;;;;17.05;73.66;96586.56;1778029;78;20983;-80
2021/08/20 01:56:59;;;;;;;2.52;2.15;;;;;;;17.04;73.59;96583.64;1792393;77;21008;-80
2021/08/20 01:59:25;;;;;;;4.90;2.00;;;;;;;17.05;73.39;96583.94;1796194;78;20977;-81
2021/08/20 02:01:51;;;;;;;3.10;2.70;;;;;;;17.04;73.40;96588.38;1797607;78;20989;-80
2021/08/20 02:04:16;;;;;;;3.83;2.60;;;;;;;17.04;73.37;96585.76;1805872;78;21303;-80
2021/08/20 02:06:42;;;;;;;3.52;2.27;;;;;;;17.02;73.51;96583.86;1797374;78;20999;-81
2021/08/20 02:09:08;;;;;;;2.60;2.20;;;;;;;16.99;73.75;96577.74;1802015;78;21039;-80
2021/08/20 02:11:34;;;;;;;4.00;2.17;;;;;;;17.00;73.91;96578.55;1802780;77;20987;-80
2021/08/20 02:14:00;;;;;;;3.55;2.08;;;;;;;17.01;73.96;96579.64;1786601;78;20949;-81
2021/08/20 02:16:26;;;;;;;7.85;2.60;;;;;;;17.02;74.20;96577.81;1799869;78;20941;-80
2021/08/20 02:18:51;;;;;;;2.52;2.15;;;;;;;17.02;74.23;96575.98;1788474;78;21294;-81
2021/08/20 02:21:17;;;;;;;3.05;1.95;;;;;;;17.02;74.09;96575.19;1785028;78;20941;-80
2021/08/20 02:23:43;;;;;;;2.47;2.00;;;;;;;16.97;74.05;96575.84;1794504;78;20969;-80
2021/08/20 02:26:08;;;;;;;3.33;2.50;;;;;;;16.91;74.04;96579.31;1796482;78;21382;-81
2021/08/20 02:28:34;;;;;;;3.30;2.10;;;;;;;16.92;74.11;96581.43;1798940;78;20937;-81
2021/08/20 02:31:00;;;;;;;3.70;2.47;;;;;;;16.95;74.23;96571.33;1790597;78;21074;-81
2021/08/20 02:33:26;;;;;;;3.15;2.17;;;;;;;16.98;74.24;96571.40;1790170;78;21037;-81
2021/08/20 02:35:52;;;;;;;3.05;2.40;;;;;;;16.99;74.07;96576.94;1802474;78;20920;-81
2021/08/20 02:38:18;;;;;;;8.78;2.92;;;;;;;16.99;74.06;96572.49;1804104;78;21011;-80
2021/08/20 02:40:43;;;;;;;7.78;2.50;;;;;;;16.95;74.44;96571.33;1791053;78;21004;-81
2021/08/20 02:43:10;;;;;;;4.97;2.60;;;;;;;16.91;74.71;96573.27;1795084;78;21807;-81
2021/08/20 02:45:35;;;;;;;3.67;2.58;;;;;;;16.85;74.53;96564.45;1775124;78;21358;-81
2021/08/20 02:48:01;;;;;;;3.15;2.00;;;;;;;16.85;74.30;96568.89;1789622;78;20924;-81
2021/08/20 02:50:27;;;;;;;4.03;2.15;;;;;;;16.86;74.37;96571.81;1791476;78;20948;-80
2021/08/20 02:52:53;;;;;;;4.80;2.70;;;;;;;16.83;74.44;96567.80;1789579;78;21345;-81
2021/08/20 02:55:21;;;;;;;3.95;2.27;;;;;;;16.80;74.52;96567.73;1798833;78;21043;-81
2021/08/20 02:57:47;;;;;;;2.40;2.20;;;;;;;16.78;74.63;96570.28;1799092;78;20919;-80
2021/08/20 03:00:14;;;;;;;3.02;1.90;;;;;;;16.77;74.56;96568.67;1792569;78;21978;-80
2021/08/20 03:02:39;;;;;;;3.37;2.33;;;;;;;16.77;74.55;96573.92;1753585;80;21007;-80
2021/08/20 03:05:07;;;;;;;3.35;2.72;;;;;;;16.74;74.49;96572.51;1759501;80;20952;-80
2021/08/20 03:07:33;;;;;;;4.90;2.50;;;;;;;16.72;74.38;96573.23;1755117;80;21028;-81
2021/08/20 03:09:58;;;;;;;2.92;2.25;;;;;;;16.70;74.47;96579.21;1733387;81;21056;-81
2021/08/20 03:12:24;;;;;;;2.75;2.35;;;;;;;16.68;74.50;96583.07;1782215;78;21304;-81
2021/08/20 03:14:52;;;;;;;3.92;1.92;;;;;;;16.68;74.61;96577.31;1791717;78;20952;-81
2021/08/20 03:17:18;;;;;;;2.70;1.75;;;;;;;16.68;74.91;96578.63;1792219;78;20992;-81
2021/08/20 03:19:45;;;;;;;2.37;2.17;;;;;;;16.69;74.68;96576.30;1792944;78;20947;-81
2021/08/20 03:22:10;;;;;;;4.17;2.20;;;;;;;16.68;74.98;96573.89;1791602;78;20988;-80
2021/08/20 03:24:36;;;;;;;2.83;2.08;;;;;;;16.66;75.25;96573.27;1776127;78;20956;-80
2021/08/20 03:27:02;;;;;;;2.87;2.00;;;;;;;16.63;74.87;96577.64;1799896;78;20928;-80
2021/08/20 03:29:28;;;;;;;3.95;2.12;;;;;;;16.60;75.08;96578.88;1789721;78;21004;-80
2021/08/20 03:31:54;;;;;;;2.15;1.72;;;;;;;16.60;75.29;96574.95;1795067;78;21540;-80
2021/08/20 03:34:19;;;;;;;2.90;2.58;;;;;;;16.61;74.78;96581.00;1802296;78;21013;-80
2021/08/20 03:36:45;;;;;;;3.95;2.25;;;;;;;16.63;74.50;96582.38;1801148;78;20928;-80
2021/08/20 03:39:11;;;;;;;2.15;1.80;;;;;;;16.67;74.54;96584.89;1800015;78;20917;-80
2021/08/20 03:41:36;;;;;;;2.47;2.10;;;;;;;16.68;74.66;96584.39;1801162;77;20893;-80
2021/08/20 03:44:02;;;;;;;3.00;2.20;;;;;;;16.68;74.80;96581.25;1799774;78;20963;-80
2021/08/20 03:46:28;;;;;;;2.45;1.98;;;;;;;16.68;74.93;96579.94;1798448;78;20968;-80
2021/08/20 03:48:54;;;;;;;4.20;2.37;;;;;;;16.65;74.59;96579.54;1796658;78;20976;-80
2021/08/20 03:51:19;;;;;;;3.65;1.90;;;;;;;16.64;74.76;96579.25;1800962;78;21260;-80
2021/08/20 03:53:46;;;;;;;3.30;2.17;;;;;;;16.65;75.15;96580.85;1801266;78;20953;-80
2021/08/20 03:56:11;;;;;;;2.30;2.10;;;;;;;16.64;74.89;96581.36;1795646;78;20952;-80
2021/08/20 03:58:37;;;;;;;2.90;2.20;;;;;;;16.64;75.01;96583.98;1799740;78;20925;-81
2021/08/20 04:01:08;;;;;;;4.70;2.72;;;;;;;16.61;74.90;96588.36;1766444;80;21818;-81
2021/08/20 04:03:34;;;;;;;3.37;2.37;;;;;;;16.57;74.94;96580.59;1798643;78;20933;-80
2021/08/20 04:06:00;;;;;;;5.22;2.15;;;;;;;16.65;75.05;96586.09;1799603;77;20889;-81
2021/08/20 04:08:25;;;;;;;3.67;2.27;;;;;;;16.67;75.04;96594.08;1798487;78;21282;-81
2021/08/20 04:10:51;;;;;;;2.87;2.55;;;;;;;16.70;75.25;96592.33;1801774;78;20999;-80
2021/08/20 04:13:17;;;;;;;3.65;2.77;;;;;;;16.69;75.33;96592.03;1802233;77;20988;-80
2021/08/20 04:15:43;;;;;;;2.90;2.25;;;;;;;16.67;75.50;96588.03;1805245;77;20960;-80
2021/08/20 04:18:10;;;;;;;2.42;2.20;;;;;;;16.64;75.41;96590.55;1794512;78;20950;-81
2021/08/20 04:20:35;;;;;;;2.52;2.08;;;;;;;16.63;75.34;96594.19;1803881;78;21434;-80
2021/08/20 04:23:01;;;;;;;3.55;2.25;;;;;;;16.61;75.03;96601.47;1800021;77;21033;-80
2021/08/20 04:25:27;;;;;;;3.00;2.25;;;;;;;16.60;74.95;96601.18;1792120;78;21000;-81
2021/08/20 04:27:54;;;;;;;2.50;2.05;;;;;;;16.60;75.15;96602.49;1798055;77;20988;-81
2021/08/20 04:30:20;;;;;;;3.35;2.40;;;;;;;16.60;75.24;96599.87;1795986;78;20971;-80
2021/08/20 04:32:46;;;;;;;3.45;1.98;;;;;;;16.61;75.15;96597.53;1800129;78;21039;-81
2021/08/20 04:35:12;;;;;;;3.83;2.10;;;;;;;16.64;75.38;96603.66;1801892;77;20957;-81
2021/08/20 04:37:38;;;;;;;2.35;1.87;;;;;;;16.69;75.60;96595.97;1803407;78;22074;-81
2021/08/20 04:40:06;;;;;;;3.35;2.05;;;;;;;16.74;75.60;96599.26;1802837;78;20985;-82
2021/08/20 04:42:32;;;;;;;3.30;2.10;;;;;;;16.76;75.15;96596.73;1805670;78;20991;-81
2021/08/20 04:44:57;;;;;;;2.55;2.00;;;;;;;16.75;75.02;96596.92;1804371;78;21351;-81
2021/08/20 04:47:23;;;;;;;3.10;2.00;;;;;;;16.75;74.76;96594.30;1800661;78;21001;-81
2021/08/20 04:49:49;;;;;;;2.40;1.92;;;;;;;16.72;74.91;96594.23;1802419;77;20992;-81
2021/08/20 04:52:15;;;;;;;3.55;2.00;;;;;;;16.71;74.95;96597.07;1800407;78;21436;-80
2021/08/20 04:54:41;;;;;;;3.72;1.75;;;;;;;16.70;74.97;96594.15;1796606;78;20967;-81
2021/08/20 04:57:07;;;;;;;2.37;1.80;;;;;;;16.71;74.88;96598.38;1799825;78;21851;-80
2021/08/20 04:59:34;;;;;;;2.60;2.10;;;;;;;16.72;74.80;96599.47;1799997;78;20941;-80
2021/08/20 05:02:02;;;;;;;3.45;2.30;;;;;;;16.71;74.57;96595.25;1801197;78;21419;-80
2021/08/20 05:04:28;;;;;;;2.42;2.00;;;;;;;16.70;74.63;96602.83;1800762;77;20945;-81
2021/08/20 05:06:54;;;;;;;2.95;2.42;;;;;;;16.71;74.91;96597.88;1769978;80;20923;-80
2021/08/20 05:09:20;;;;;;;2.10;1.90;;;;;;;16.73;75.07;96607.64;1766586;80;21258;-80
2021/08/20 05:11:46;;;;;;;3.25;2.10;;;;;;;16.77;75.06;96602.79;1767041;80;20971;-80
2021/08/20 05:14:11;;;;;;;2.77;2.10;;;;;;;16.79;75.10;96600.23;1771208;80;20998;-80
2021/08/20 05:16:37;;;;;;;4.83;2.17;;;;;;;16.82;74.94;96600.31;1762656;80;21046;-81
2021/08/20 05:19:03;;;;;;;3.58;2.17;;;;;;;16.85;75.14;96597.25;1762063;79;21331;-80
2021/08/20 05:21:29;;;;;;;2.22;1.90;;;;;;;16.85;75.22;96597.77;1792550;78;21060;-81
2021/08/20 05:23:55;;;;;;;3.27;1.90;;;;;;;16.87;75.36;96599.66;1798703;78;21262;-81
2021/08/20 05:26:21;;;;;;;2.30;1.50;;;;;;;16.92;75.36;96595.87;1801728;77;21459;-80
2021/08/20 05:28:46;;;;;;;4.33;1.90;;;;;;;16.95;75.34;96598.89;1772006;78;20942;-80
2021/08/20 05:31:12;;;;;;;3.60;1.60;;;;;;;17.03;75.71;96603.04;1797064;78;21358;-80
2021/08/20 05:33:38;;;;;;;2.17;1.98;;;;;;;17.06;75.57;96602.60;1805700;78;21424;-80
2021/08/20 05:36:04;;;;;;;2.47;1.50;;;;;;;17.09;75.57;96601.68;1791411;78;21041;-81
2021/08/20 05:38:29;;;;;;;2.55;1.30;;;;;;;17.15;75.74;96603.14;1802953;78;20953;-81
2021/08/20 05:40:55;;;;;;;2.72;1.72;;;;;;;17.22;75.79;96603.35;1803045;78;20879;-80
2021/08/20 05:43:21;;;;;;;3.10;1.87;;;;;;;17.27;75.58;96601.41;1803395;78;20949;-81
2021/08/20 05:45:47;;;;;;;3.20;1.98;;;;;;;17.34;75.65;96606.06;1799043;78;20909;-80
2021/08/20 05:48:13;;;;;;;2.25;1.75;;;;;;;17.38;75.75;96602.77;1790937;78;20944;-80
2021/08/20 05:50:38;;;;;;;2.47;1.42;;;;;;;17.42;75.90;96610.23;1775652;78;20937;-80
2021/08/20 05:53:04;;;;;;;2.30;1.65;;;;;;;17.45;76.15;96608.48;1798687;78;21007;-80
2021/08/20 05:55:34;;;;;;;2.00;1.67;;;;;;;17.48;76.03;96614.09;1793194;78;20998;-80
2021/08/20 05:58:03;;;;;;;2.15;1.52;;;;;;;17.52;76.24;96612.62;1788389;78;20955;-80
2021/08/20 06:00:28;;;;;;;2.60;1.70;;;;;;;17.55;76.17;96607.44;1802132;78;20970;-80
2021/08/20 06:02:54;;;;;;;2.65;1.70;;;;;;;17.57;76.18;96613.27;1798944;78;20988;-80
2021/08/20 06:05:20;;;;;;;2.52;1.75;;;;;;;17.62;76.37;96616.06;1791614;78;21353;-80
2021/08/20 06:07:47;;;;;;;2.42;1.40;;;;;;;17.68;76.75;96614.69;1795340;77;21024;-80
2021/08/20 06:10:13;;;;;;;1.90;1.15;;;;;;;17.77;76.77;96619.66;1799714;78;20963;-80
2021/08/20 06:12:39;;;;;;;1.65;1.42;;;;;;;17.86;76.64;96620.95;1803400;78;20911;-80
2021/08/20 06:15:06;;;;;;;2.12;1.85;;;;;;;17.99;76.65;96624.22;1805731;79;20997;-80
2021/08/20 06:17:31;;;;;;;1.90;1.20;;;;;;;18.11;76.39;96624.78;1799038;78;20972;-80
2021/08/20 06:19:57;;;;;;;2.25;1.62;;;;;;;18.13;76.33;96626.67;1774705;79;21287;-80
2021/08/20 06:22:23;;;;;;;3.00;1.70;;;;;;;18.14;76.27;96625.13;1802670;77;20925;-80
2021/08/20 06:24:48;;;;;;;3.15;1.55;;;;;;;18.19;76.24;96631.03;1807552;78;20979;-80
2021/08/20 06:27:14;;;;;;;3.08;1.42;;;;;;;18.22;76.16;96632.72;1802937;78;21269;-81
2021/08/20 06:29:40;;;;;;;2.45;1.30;;;;;;;18.32;76.35;96628.73;1802023;77;20926;-81
2021/08/20 06:32:06;;;;;;;3.08;1.60;;;;;;;18.42;76.12;96630.32;1801564;77;21072;-80
2021/08/20 06:34:32;;;;;;;3.80;1.40;;;;;;;18.47;76.01;96625.98;1817527;78;20986;-80
2021/08/20 06:36:59;;;;;;;2.35;1.40;;;;;;;18.50;76.05;96632.10;1798722;78;20968;-81
2021/08/20 06:39:25;;;;;;;1.47;1.37;;;;;;;18.51;75.83;96627.64;1807346;78;21421;-80
2021/08/20 06:41:50;;;;;;;3.22;1.27;;;;;;;18.54;75.94;96630.61;1801980;78;21037;-80
2021/08/20 06:44:16;;;;;;;2.37;1.50;;;;;;;18.63;75.78;96624.55;1802002;78;21022;-80
2021/08/20 06:46:42;;;;;;;3.90;1.77;;;;;;;18.72;75.71;96628.48;1805198;78;21075;-80
2021/08/20 06:49:08;;;;;;;2.05;1.62;;;;;;;18.74;75.54;96630.36;1801242;78;21366;-80
2021/08/20 06:51:34;;;;;;;2.22;1.45;;;;;;;18.71;75.68;96624.24;1800692;78;21341;-81
2021/08/20 06:54:00;;;;;;;1.98;1.50;;;;;;;18.70;75.99;96625.75;1811391;78;21248;-80
2021/08/20 06:56:25;;;;;;;1.67;1.40;;;;;;;18.75;76.00;96627.22;1805758;78;20922;-80
2021/08/20 06:58:51;;;;;;;2.00;1.50;;;;;;;18.82;75.94;96623.95;1806512;78;20956;-80
2021/08/20 07:01:17;;;;;;;2.35;1.60;;;;;;;18.90;75.67;96613.09;1803191;77;21334;-82
2021/08/20 07:03:43;;;;;;;1.77;1.60;;;;;;;19.00;75.71;96621.20;1800347;78;21023;-81
2021/08/20 07:06:08;;;;;;;2.85;1.70;;;;;;;19.12;75.99;96624.66;1800950;78;20893;-81
2021/08/20 07:08:35;;;;;;;3.58;2.08;;;;;;;19.21;75.77;96626.44;1799516;78;20914;-81
2021/08/20 07:11:00;;;;;;;2.25;1.72;;;;;;;19.28;75.31;96623.16;1806042;77;21316;-81
2021/08/20 07:13:26;;;;;;;3.85;1.67;;;;;;;19.35;75.03;96621.70;1798145;78;20965;-81
2021/08/20 07:15:52;;;;;;;2.05;1.50;;;;;;;19.42;74.83;96625.03;1791781;78;21672;-81
2021/08/20 07:18:18;;;;;;;2.00;1.60;;;;;;;19.52;74.59;96631.81;1795658;78;20998;-81
2021/08/20 07:20:44;;;;;;;1.98;1.70;;;;;;;19.56;74.41;96630.38;1799869;78;21303;-81
2021/08/20 07:23:09;;;;;;;2.33;1.80;;;;;;;19.63;74.19;96631.55;1793883;78;20940;-81
2021/08/20 07:25:35;;;;;;;3.85;1.77;;;;;;;19.68;74.15;96627.69;1796477;78;20971;-80
2021/08/20 07:28:01;;;;;;;4.28;3.02;;;;;;;19.77;74.12;96629.75;1790869;79;20933;-81
2021/08/20 07:30:27;;;;;;;1.90;1.60;;;;;;;19.88;73.53;96629.44;1788681;78;20953;-81
2021/08/20 07:32:52;;;;;;;3.95;2.08;;;;;;;19.95;73.59;96630.61;1801773;78;20968;-80
2021/08/20 07:35:18;;;;;;;3.27;2.10;;;;;;;20.00;72.84;96632.02;1798910;78;20971;-80
2021/08/20 07:37:44;;;;;;;2.55;1.60;;;;;;;20.04;72.76;96630.53;1798053;78;20998;-80
2021/08/20 07:40:10;;;;;;;3.35;1.82;;;;;;;20.09;73.10;96635.89;1804417;78;20901;-81
2021/08/20 07:42:35;;;;;;;2.42;1.60;;;;;;;20.09;72.16;96631.94;1798155;78;21398;-81
2021/08/20 07:45:01;;;;;;;2.12;1.70;;;;;;;20.11;71.84;96637.78;1799954;78;20956;-81
2021/08/20 07:47:27;;;;;;;2.62;1.85;;;;;;;20.16;71.31;96639.18;1800593;78;20925;-81
2021/08/20 07:49:53;;;;;;;3.17;2.17;;;;;;;20.23;71.84;96644.33;1777074;78;20928;-81
2021/08/20 07:52:19;;;;;;;2.98;1.85;;;;;;;20.22;71.52;96641.41;1795616;79;21331;-81
2021/08/20 07:54:44;;;;;;;2.37;1.55;;;;;;;20.25;72.33;96643.58;1802353;78;20983;-81
2021/08/20 07:57:10;;;;;;;2.70;1.90;;;;;;;20.25;72.22;96643.05;1789485;78;20983;-81
2021/08/20 07:59:36;;;;;;;1.57;1.37;;;;;;;20.25;72.22;96643.05;1798875;78;21311;-81
2021/08/20 08:02:02;;;;;;;2.42;1.57;;;;;;;20.33;72.38;96651.89;1759514;80;21314;-80
2021/08/20 08:04:28;;;;;;;3.12;2.30;;;;;;;20.42;71.93;96657.64;1731511;81;20957;-81
2021/08/20 08:06:54;;;;;;;1.62;1.52;;;;;;;20.47;71.81;96656.39;1736919;81;20969;-81
2021/08/20 08:09:20;;;;;;;1.90;1.60;;;;;;;20.49;72.05;96653.00;1748031;80;21015;-80
2021/08/20 08:11:46;;;;;;;3.35;1.70;;;;;;;20.48;71.69;96651.40;1756849;80;21283;-81
2021/08/20 08:14:12;;;;;;;1.95;1.52;;;;;;;20.49;71.59;96652.20;1795367;78;21039;-81
2021/08/20 08:16:39;;;;;;;1.95;1.35;;;;;;;20.54;71.53;96654.42;1809521;78;20930;-81
2021/08/20 08:19:06;;;;;;;4.12;2.20;;;;;;;20.59;71.74;96646.59;1799270;78;21020;-81
2021/08/20 08:21:33;;;;;;;3.40;2.05;;;;;;;20.66;70.92;96649.06;1805911;77;20969;-81
2021/08/20 08:24:00;;;;;;;3.00;2.10;;;;;;;20.70;68.14;96647.56;1799584;78;21392;-80
2021/08/20 08:26:26;;;;;;;2.00;1.57;;;;;;;20.74;68.09;96647.36;1806895;78;20957;-81
2021/08/20 08:28:53;;;;;;;2.67;1.80;;;;;;;20.80;68.77;96652.20;1793652;77;20952;-80
2021/08/20 08:31:20;;;;;;;4.03;2.37;;;;;;;20.90;69.56;96649.20;1803953;78;20965;-80
2021/08/20 08:33:45;;;;;;;1.82;1.55;;;;;;;20.98;69.04;96650.62;1806249;78;21390;-80
2021/08/20 08:36:11;;;;;;;2.70;1.70;;;;;;;21.03;69.42;96649.93;1793254;78;21032;-80
2021/08/20 08:38:37;;;;;;;1.60;1.30;;;;;;;21.09;68.49;96650.27;1803889;77;20960;-80
2021/08/20 08:41:03;;;;;;;2.10;1.65;;;;;;;21.11;65.91;96648.19;1806043;78;21425;-80
2021/08/20 08:43:30;;;;;;;3.67;1.82;;;;;;;21.09;65.52;96652.92;1804965;77;20980;-80
2021/08/20 08:45:58;;;;;;;2.83;1.87;;;;;;;21.15;68.16;96657.23;1814710;78;21326;-80
2021/08/20 08:48:24;;;;;;;2.02;1.45;;;;;;;21.18;68.90;96660.20;1785127;79;21045;-80
2021/08/20 08:50:51;;;;;;;2.67;1.40;;;;;;;21.17;66.70;96656.49;1798226;78;21373;-80
2021/08/20 08:53:17;;;;;;;3.87;1.77;;;;;;;21.27;66.28;96660.62;1807817;78;20964;-80
2021/08/20 08:55:49;;;;;;;1.70;1.50;;;;;;;21.34;64.27;96655.17;1777471;79;20939;-80
2021/08/20 08:58:15;;;;;;;2.15;1.42;;;;;;;21.38;65.01;96655.77;1802588;78;21044;-80
2021/08/20 09:00:40;;;;;;;2.17;1.40;;;;;;;21.51;64.00;96663.34;1805040;78;21068;-80
2021/08/20 09:03:06;;;;;;;2.98;1.30;;;;;;;21.61;63.47;96665.84;1796416;78;21051;-80
2021/08/20 09:05:45;;;;;;;1.77;1.20;;;;;;;21.69;62.45;96662.78;1805354;78;21014;-80
2021/08/20 09:08:15;;;;;;;2.65;1.62;;;;;;;21.72;61.64;96660.44;1797326;78;21106;-80
2021/08/20 09:10:53;;;;;;;2.05;1.20;;;;;;;21.78;62.48;96662.09;1798594;78;21363;-81
2021/08/20 09:13:20;;;;;;;2.77;1.40;;;;;;;21.88;62.97;96660.91;1811675;78;21001;-81
2021/08/20 09:15:46;;;;;;;1.77;1.40;;;;;;;21.99;62.98;96668.98;1813456;77;21041;-80
2021/08/20 09:18:22;;;;;;;3.10;1.90;;;;;;;22.06;62.99;96668.28;1800408;78;20972;-80
2021/08/20 09:20:49;;;;;;;2.75;1.72;;;;;;;22.04;61.80;96660.56;1799756;78;21032;-80
2021/08/20 09:23:23;;;;;;;2.33;1.62;;;;;;;22.07;61.70;96661.94;1804316;78;21322;-80
2021/08/20 09:25:49;;;;;;;2.10;1.67;;;;;;;22.17;60.39;96666.04;1803627;78;20934;-80
2021/08/20 09:28:27;;;;;;;2.85;1.70;;;;;;;22.23;60.08;96657.62;1805719;78;20965;-80
2021/08/20 09:31:01;;;;;;;2.10;1.90;;;;;;;22.26;59.58;96661.89;1802987;78;21081;-80
2021/08/20 09:33:33;;;;;;;2.70;2.02;;;;;;;22.33;59.49;96662.51;1806649;78;21025;-80
2021/08/20 09:36:13;;;;;;;2.15;1.80;;;;;;;22.42;59.80;96663.64;1800312;78;20985;-81
2021/08/20 09:38:49;;;;;;;3.22;2.15;;;;;;;22.40;59.58;96660.45;1803431;78;20980;-81
2021/08/20 09:41:19;;;;;;;2.58;2.02;;;;;;;22.46;58.94;96661.31;1801528;78;21040;-80
2021/08/20 09:43:49;;;;;;;3.47;2.10;;;;;;;22.52;58.51;96663.48;1805127;78;20993;-81
2021/08/20 09:46:17;;;;;;;4.20;1.87;;;;;;;22.57;58.37;96656.89;1803002;78;22115;-80
2021/08/20 09:49:01;;;;;;;1.87;1.50;;;;;;;22.68;59.98;96658.59;1809737;78;20928;-81
2021/08/20 09:51:48;;;;;;;2.77;2.05;;;;;;;22.78;61.26;96656.05;1809105;78;21362;-80
2021/08/20 09:54:23;;;;;;;2.05;1.80;;;;;;;22.86;61.30;96654.80;1793030;79;21017;-80
2021/08/20 09:56:49;;;;;;;2.42;1.70;;;;;;;22.84;59.20;96652.41;1762917;80;21010;-80
2021/08/20 09:59:15;;;;;;;3.62;2.58;;;;;;;22.77;57.83;96657.87;1766494;79;21049;-80
2021/08/20 10:01:43;;;;;;;2.10;1.65;;;;;;;22.79;58.72;96654.20;1769137;79;20932;-81
2021/08/20 10:04:11;;;;;;;2.80;1.90;;;;;;;22.83;58.11;96651.34;1767962;80;21911;-80
2021/08/20 10:06:44;;;;;;;2.60;2.08;;;;;;;22.88;57.33;96651.38;1768225;81;20946;-81
2021/08/20 10:09:18;;;;;;;2.90;2.20;;;;;;;22.90;57.60;96642.64;1757944;80;20943;-80
2021/08/20 10:11:51;;;;;;;4.78;2.40;;;;;;;22.96;56.81;96640.32;1758587;79;20974;-81
2021/08/20 10:14:20;;;;;;;2.08;1.87;;;;;;;22.99;56.62;96632.66;1766955;80;21005;-81
2021/08/20 10:16:46;;;;;;;3.77;2.02;;;;;;;23.05;58.54;96631.63;1741164;82;21111;-81
2021/08/20 10:19:12;;;;;;;3.65;2.00;;;;;;;23.14;58.57;96635.14;1735931;81;21048;-80
2021/08/20 10:21:40;;;;;;;4.25;1.90;;;;;;;23.19;58.99;96631.98;1760796;80;20999;-80
2021/08/20 10:24:07;;;;;;;2.10;1.80;;;;;;;23.24;58.83;96640.49;1806973;78;21440;-81
2021/08/20 10:26:32;;;;;;;1.92;1.65;;;;;;;23.18;58.86;96637.02;1794683;78;21016;-80
2021/08/20 10:29:00;;;;;;;1.85;1.32;;;;;;;23.06;57.40;96630.57;1802964;78;20932;-80
2021/08/20 10:31:25;;;;;;;2.00;1.50;;;;;;;22.98;57.26;96633.70;1802364;78;21028;-81
2021/08/20 10:33:51;;;;;;;1.98;1.42;;;;;;;23.00;58.25;96634.25;1797846;78;21091;-81
2021/08/20 10:36:36;;;;;;;2.37;1.90;;;;;;;23.02;57.54;96637.44;1799151;78;21462;-80
2021/08/20 10:39:03;;;;;;;2.55;1.60;;;;;;;22.97;56.87;96629.99;1792836;79;21407;-80
2021/08/20 10:41:29;;;;;;;3.05;1.70;;;;;;;22.96;58.48;96630.52;1797800;78;20940;-80
2021/08/20 10:44:11;;;;;;;2.00;1.62;;;;;;;22.99;57.45;96629.20;1808300;77;20955;-80
2021/08/20 10:46:43;;;;;;;3.58;2.00;;;;;;;23.02;57.37;96628.69;1798760;79;20953;-81
2021/08/20 10:49:19;;;;;;;2.40;1.62;;;;;;;22.87;56.92;96638.66;1804907;77;21365;-81
2021/08/20 10:51:56;;;;;;;2.52;1.60;;;;;;;22.81;57.49;96636.20;1805802;78;20946;-80
2021/08/20 10:54:37;;;;;;;2.62;1.50;;;;;;;22.68;57.18;96628.94;1804567;78;21032;-80
2021/08/20 10:57:10;;;;;;;3.77;1.90;;;;;;;22.65;57.12;96636.06;1801148;78;21035;-81
2021/08/20 10:59:43;;;;;;;2.35;1.82;;;;;;;22.62;58.05;96639.75;1776454;79;21332;-81
2021/08/20 11:02:24;;;;;;;3.02;2.02;;;;;;;22.62;58.11;96643.20;1806037;78;20901;-80
2021/08/20 11:05:11;;;;;;;2.98;2.15;;;;;;;22.65;58.48;96641.36;1805624;78;20988;-80
2021/08/20 11:07:44;;;;;;;2.00;1.65;;;;;;;22.70;58.49;96632.13;1747276;80;20983;-81
2021/08/20 11:10:15;;;;;;;1.60;1.50;;;;;;;22.73;59.10;96628.97;1756297;79;20944;-81
2021/08/20 11:12:49;;;;;;;3.00;1.65;;;;;;;22.75;58.74;96630.83;1766458;80;20944;-80
2021/08/20 11:15:27;;;;;;;1.90;1.57;;;;;;;22.80;61.43;96630.63;1799584;78;21309;-81
2021/08/20 11:18:04;;;;;;;2.25;1.47;;;;;;;22.80;61.91;96626.66;1792940;78;20949;-80
2021/08/20 11:20:41;;;;;;;2.40;1.67;;;;;;;22.75;62.06;96629.52;1800153;78;20954;-80
2021/08/20 11:23:14;;;;;;;2.67;1.70;;;;;;;22.76;62.08;96627.13;1795989;78;20978;-80
2021/08/20 11:25:48;;;;;;;2.98;1.75;;;;;;;22.79;62.92;96631.68;1796198;78;20980;-80
2021/08/20 11:28:34;;;;;;;2.20;1.85;;;;;;;22.81;63.07;96628.25;1763189;79;21313;-81
2021/08/20 11:31:10;;;;;;;2.92;2.20;;;;;;;22.74;61.69;96632.41;1801861;78;21371;-80
2021/08/20 11:33:41;;;;;;;2.22;2.02;;;;;;;22.75;60.54;96637.98;1807972;78;21367;-82
2021/08/20 11:36:16;;;;;;;3.42;2.15;;;;;;;22.67;59.69;96627.34;1800129;78;20909;-80